sensor_id;sensor_type;location;lat;lon;timestamp;temperature;humidity
28484;DHT22;15704;48.834;8.736;2023-06-19T00:02:08;24.30;75.00
28484;DHT22;15704;48.834;8.736;2023-06-19T00:04:35;24.20;75.00
28484;DHT22;15704;48.834;8.736;2023-06-19T00:07:04;24.30;75.10
28484;DHT22;15704;48.834;8.736;2023-06-19T00:09:31;24.30;75.10
28484;DHT22;15704;48.834;8.736;2023-06-19T00:11:59;24.20;75.10
28484;DHT22;15704;48.834;8.736;2023-06-19T00:14:26;24.20;75.10
28484;DHT22;15704;48.834;8.736;2023-06-19T00:16:53;24.20;75.10
28484;DHT22;15704;48.834;8.736;2023-06-19T00:19:19;24.20;75.20
28484;DHT22;15704;48.834;8.736;2023-06-19T00:21:46;24.20;75.20
28484;DHT22;15704;48.834;8.736;2023-06-19T00:24:13;24.20;75.20
28484;DHT22;15704;48.834;8.736;2023-06-19T00:26:40;24.20;75.30
28484;DHT22;15704;48.834;8.736;2023-06-19T00:29:06;24.20;75.20
28484;DHT22;15704;48.834;8.736;2023-06-19T00:31:33;24.20;75.40
28484;DHT22;15704;48.834;8.736;2023-06-19T00:34:03;24.20;75.40
28484;DHT22;15704;48.834;8.736;2023-06-19T00:36:30;24.20;75.40
28484;DHT22;15704;48.834;8.736;2023-06-19T00:38:57;24.20;75.50
28484;DHT22;15704;48.834;8.736;2023-06-19T00:41:25;24.20;75.80
28484;DHT22;15704;48.834;8.736;2023-06-19T00:43:53;24.20;76.00
28484;DHT22;15704;48.834;8.736;2023-06-19T00:46:20;24.10;77.50
28484;DHT22;15704;48.834;8.736;2023-06-19T00:48:48;24.20;77.80
28484;DHT22;15704;48.834;8.736;2023-06-19T00:51:15;24.20;77.40
28484;DHT22;15704;48.834;8.736;2023-06-19T00:53:42;24.20;77.30
28484;DHT22;15704;48.834;8.736;2023-06-19T00:56:08;24.20;77.20
28484;DHT22;15704;48.834;8.736;2023-06-19T00:58:35;24.20;77.20
28484;DHT22;15704;48.834;8.736;2023-06-19T01:01:02;24.20;77.00
28484;DHT22;15704;48.834;8.736;2023-06-19T01:03:36;24.20;77.00
28484;DHT22;15704;48.834;8.736;2023-06-19T01:06:13;24.20;77.20
28484;DHT22;15704;48.834;8.736;2023-06-19T01:08:58;24.20;76.80
28484;DHT22;15704;48.834;8.736;2023-06-19T01:11:30;24.20;77.40
28484;DHT22;15704;48.834;8.736;2023-06-19T01:14:09;24.10;77.10
28484;DHT22;15704;48.834;8.736;2023-06-19T01:16:37;24.10;77.50
28484;DHT22;15704;48.834;8.736;2023-06-19T01:19:05;24.10;77.20
28484;DHT22;15704;48.834;8.736;2023-06-19T01:21:36;24.10;78.20
28484;DHT22;15704;48.834;8.736;2023-06-19T01:24:03;24.10;77.20
28484;DHT22;15704;48.834;8.736;2023-06-19T01:26:30;24.10;77.50
28484;DHT22;15704;48.834;8.736;2023-06-19T01:28:57;24.10;77.10
28484;DHT22;15704;48.834;8.736;2023-06-19T01:31:29;24.10;77.40
28484;DHT22;15704;48.834;8.736;2023-06-19T01:33:57;24.10;77.70
28484;DHT22;15704;48.834;8.736;2023-06-19T01:36:25;24.10;77.90
28484;DHT22;15704;48.834;8.736;2023-06-19T01:38:54;24.10;77.20
28484;DHT22;15704;48.834;8.736;2023-06-19T01:41:24;24.10;77.30
28484;DHT22;15704;48.834;8.736;2023-06-19T01:43:52;24.00;77.20
28484;DHT22;15704;48.834;8.736;2023-06-19T01:46:19;24.10;77.30
28484;DHT22;15704;48.834;8.736;2023-06-19T01:48:46;24.00;77.40
28484;DHT22;15704;48.834;8.736;2023-06-19T01:51:13;24.00;78.30
28484;DHT22;15704;48.834;8.736;2023-06-19T01:53:40;24.00;77.90
28484;DHT22;15704;48.834;8.736;2023-06-19T01:56:07;24.00;78.00
28484;DHT22;15704;48.834;8.736;2023-06-19T01:58:34;24.00;78.00
28484;DHT22;15704;48.834;8.736;2023-06-19T02:01:01;24.00;78.20
28484;DHT22;15704;48.834;8.736;2023-06-19T02:03:27;23.90;77.70
28484;DHT22;15704;48.834;8.736;2023-06-19T02:05:54;23.90;77.80
28484;DHT22;15704;48.834;8.736;2023-06-19T02:08:21;23.90;77.70
28484;DHT22;15704;48.834;8.736;2023-06-19T02:10:48;23.90;77.80
28484;DHT22;15704;48.834;8.736;2023-06-19T02:13:15;23.90;78.30
28484;DHT22;15704;48.834;8.736;2023-06-19T02:15:41;23.90;78.00
28484;DHT22;15704;48.834;8.736;2023-06-19T02:18:08;23.90;78.00
28484;DHT22;15704;48.834;8.736;2023-06-19T02:20:35;23.90;78.20
28484;DHT22;15704;48.834;8.736;2023-06-19T02:23:02;23.90;78.00
28484;DHT22;15704;48.834;8.736;2023-06-19T02:25:29;23.90;78.10
28484;DHT22;15704;48.834;8.736;2023-06-19T02:27:55;23.90;78.10
28484;DHT22;15704;48.834;8.736;2023-06-19T02:30:23;23.90;78.30
28484;DHT22;15704;48.834;8.736;2023-06-19T02:32:50;23.90;78.30
28484;DHT22;15704;48.834;8.736;2023-06-19T02:35:17;23.90;78.40
28484;DHT22;15704;48.834;8.736;2023-06-19T02:37:44;23.90;78.30
28484;DHT22;15704;48.834;8.736;2023-06-19T02:40:13;23.80;78.30
28484;DHT22;15704;48.834;8.736;2023-06-19T02:42:40;23.80;78.50
28484;DHT22;15704;48.834;8.736;2023-06-19T02:45:07;23.80;78.60
28484;DHT22;15704;48.834;8.736;2023-06-19T02:47:34;23.90;78.60
28484;DHT22;15704;48.834;8.736;2023-06-19T02:50:02;23.80;78.80
28484;DHT22;15704;48.834;8.736;2023-06-19T02:52:30;23.80;78.80
28484;DHT22;15704;48.834;8.736;2023-06-19T02:54:57;23.80;79.40
28484;DHT22;15704;48.834;8.736;2023-06-19T02:57:23;23.80;79.00
28484;DHT22;15704;48.834;8.736;2023-06-19T02:59:50;23.70;79.00
28484;DHT22;15704;48.834;8.736;2023-06-19T03:02:17;23.80;79.50
28484;DHT22;15704;48.834;8.736;2023-06-19T03:04:44;23.80;79.60
28484;DHT22;15704;48.834;8.736;2023-06-19T03:07:11;23.80;79.80
28484;DHT22;15704;48.834;8.736;2023-06-19T03:09:40;23.80;79.50
28484;DHT22;15704;48.834;8.736;2023-06-19T03:12:08;23.80;79.60
28484;DHT22;15704;48.834;8.736;2023-06-19T03:14:35;23.80;79.70
28484;DHT22;15704;48.834;8.736;2023-06-19T03:17:02;23.80;79.70
28484;DHT22;15704;48.834;8.736;2023-06-19T03:19:30;23.80;80.50
28484;DHT22;15704;48.834;8.736;2023-06-19T03:21:56;23.70;79.60
28484;DHT22;15704;48.834;8.736;2023-06-19T03:24:23;23.70;79.90
28484;DHT22;15704;48.834;8.736;2023-06-19T03:26:50;23.70;79.90
28484;DHT22;15704;48.834;8.736;2023-06-19T03:29:16;23.70;79.90
28484;DHT22;15704;48.834;8.736;2023-06-19T03:31:43;23.70;79.80
28484;DHT22;15704;48.834;8.736;2023-06-19T03:34:10;23.70;79.90
28484;DHT22;15704;48.834;8.736;2023-06-19T03:36:37;23.70;79.80
28484;DHT22;15704;48.834;8.736;2023-06-19T03:39:04;23.70;79.80
28484;DHT22;15704;48.834;8.736;2023-06-19T03:41:31;23.70;79.80
28484;DHT22;15704;48.834;8.736;2023-06-19T03:43:58;23.70;79.80
28484;DHT22;15704;48.834;8.736;2023-06-19T03:46:24;23.70;80.70
28484;DHT22;15704;48.834;8.736;2023-06-19T03:48:51;23.70;80.00
28484;DHT22;15704;48.834;8.736;2023-06-19T03:51:18;23.70;79.80
28484;DHT22;15704;48.834;8.736;2023-06-19T03:53:45;23.70;79.70
28484;DHT22;15704;48.834;8.736;2023-06-19T03:56:11;23.70;79.90
28484;DHT22;15704;48.834;8.736;2023-06-19T03:58:38;23.70;79.80
28484;DHT22;15704;48.834;8.736;2023-06-19T04:01:05;23.70;79.80
28484;DHT22;15704;48.834;8.736;2023-06-19T04:03:32;23.70;79.80
28484;DHT22;15704;48.834;8.736;2023-06-19T04:05:59;23.60;79.80
28484;DHT22;15704;48.834;8.736;2023-06-19T04:08:26;23.70;80.00
28484;DHT22;15704;48.834;8.736;2023-06-19T04:10:52;23.70;80.00
28484;DHT22;15704;48.834;8.736;2023-06-19T04:13:19;23.70;80.00
28484;DHT22;15704;48.834;8.736;2023-06-19T04:15:47;23.70;80.10
28484;DHT22;15704;48.834;8.736;2023-06-19T04:18:17;23.70;80.00
28484;DHT22;15704;48.834;8.736;2023-06-19T04:20:43;23.70;80.00
28484;DHT22;15704;48.834;8.736;2023-06-19T04:23:10;23.70;80.10
28484;DHT22;15704;48.834;8.736;2023-06-19T04:25:37;23.70;80.00
28484;DHT22;15704;48.834;8.736;2023-06-19T04:28:04;23.70;80.00
28484;DHT22;15704;48.834;8.736;2023-06-19T04:30:31;23.70;80.00
28484;DHT22;15704;48.834;8.736;2023-06-19T04:32:58;23.70;80.10
28484;DHT22;15704;48.834;8.736;2023-06-19T04:35:25;23.80;80.10
28484;DHT22;15704;48.834;8.736;2023-06-19T04:37:53;23.80;80.10
28484;DHT22;15704;48.834;8.736;2023-06-19T04:40:20;23.70;80.00
28484;DHT22;15704;48.834;8.736;2023-06-19T04:42:47;23.80;80.10
28484;DHT22;15704;48.834;8.736;2023-06-19T04:45:14;23.80;80.10
28484;DHT22;15704;48.834;8.736;2023-06-19T04:47:40;23.80;80.20
28484;DHT22;15704;48.834;8.736;2023-06-19T04:50:19;23.80;80.30
28484;DHT22;15704;48.834;8.736;2023-06-19T04:52:46;23.70;80.30
28484;DHT22;15704;48.834;8.736;2023-06-19T04:55:13;23.80;80.30
28484;DHT22;15704;48.834;8.736;2023-06-19T04:57:40;23.80;80.50
28484;DHT22;15704;48.834;8.736;2023-06-19T05:00:07;23.80;80.30
28484;DHT22;15704;48.834;8.736;2023-06-19T05:02:36;23.80;80.40
28484;DHT22;15704;48.834;8.736;2023-06-19T05:05:04;23.80;80.40
28484;DHT22;15704;48.834;8.736;2023-06-19T05:07:30;23.80;80.50
28484;DHT22;15704;48.834;8.736;2023-06-19T05:10:00;23.80;80.30
28484;DHT22;15704;48.834;8.736;2023-06-19T05:12:27;23.90;80.40
28484;DHT22;15704;48.834;8.736;2023-06-19T05:14:53;23.80;80.30
28484;DHT22;15704;48.834;8.736;2023-06-19T05:17:20;23.80;80.30
28484;DHT22;15704;48.834;8.736;2023-06-19T05:19:47;23.90;80.30
28484;DHT22;15704;48.834;8.736;2023-06-19T05:22:14;23.80;80.20
28484;DHT22;15704;48.834;8.736;2023-06-19T05:24:41;23.90;80.30
28484;DHT22;15704;48.834;8.736;2023-06-19T05:27:08;23.90;80.20
28484;DHT22;15704;48.834;8.736;2023-06-19T05:29:35;23.90;82.00
28484;DHT22;15704;48.834;8.736;2023-06-19T05:32:02;23.80;80.90
28484;DHT22;15704;48.834;8.736;2023-06-19T05:34:29;23.90;80.80
28484;DHT22;15704;48.834;8.736;2023-06-19T05:36:56;23.80;80.70
28484;DHT22;15704;48.834;8.736;2023-06-19T05:39:23;23.80;82.70
28484;DHT22;15704;48.834;8.736;2023-06-19T05:41:50;23.80;85.40
28484;DHT22;15704;48.834;8.736;2023-06-19T05:44:16;23.80;88.90
28484;DHT22;15704;48.834;8.736;2023-06-19T05:46:45;23.80;88.80
28484;DHT22;15704;48.834;8.736;2023-06-19T05:49:12;23.80;86.70
28484;DHT22;15704;48.834;8.736;2023-06-19T05:51:39;23.80;89.00
28484;DHT22;15704;48.834;8.736;2023-06-19T05:54:05;23.80;88.90
28484;DHT22;15704;48.834;8.736;2023-06-19T05:56:33;23.80;86.90
28484;DHT22;15704;48.834;8.736;2023-06-19T05:59:00;23.80;89.70
28484;DHT22;15704;48.834;8.736;2023-06-19T06:01:28;23.80;90.50
28484;DHT22;15704;48.834;8.736;2023-06-19T06:03:56;23.70;90.60
28484;DHT22;15704;48.834;8.736;2023-06-19T06:06:23;23.70;90.90
28484;DHT22;15704;48.834;8.736;2023-06-19T06:08:50;23.80;91.10
28484;DHT22;15704;48.834;8.736;2023-06-19T06:11:22;23.80;91.20
28484;DHT22;15704;48.834;8.736;2023-06-19T06:13:49;23.80;91.10
28484;DHT22;15704;48.834;8.736;2023-06-19T06:16:15;23.80;91.60
28484;DHT22;15704;48.834;8.736;2023-06-19T06:18:42;23.80;91.70
28484;DHT22;15704;48.834;8.736;2023-06-19T06:21:09;23.80;91.80
28484;DHT22;15704;48.834;8.736;2023-06-19T06:23:36;23.80;91.80
28484;DHT22;15704;48.834;8.736;2023-06-19T06:26:02;23.70;91.60
28484;DHT22;15704;48.834;8.736;2023-06-19T06:28:29;23.80;91.70
28484;DHT22;15704;48.834;8.736;2023-06-19T06:30:58;23.80;91.60
28484;DHT22;15704;48.834;8.736;2023-06-19T06:33:24;23.80;91.70
28484;DHT22;15704;48.834;8.736;2023-06-19T06:35:54;23.80;91.60
28484;DHT22;15704;48.834;8.736;2023-06-19T06:38:21;23.90;91.30
28484;DHT22;15704;48.834;8.736;2023-06-19T06:40:48;23.90;91.70
28484;DHT22;15704;48.834;8.736;2023-06-19T06:43:15;23.90;91.50
28484;DHT22;15704;48.834;8.736;2023-06-19T06:45:42;23.90;92.10
28484;DHT22;15704;48.834;8.736;2023-06-19T06:48:09;23.80;92.50
28484;DHT22;15704;48.834;8.736;2023-06-19T06:50:37;23.80;92.20
28484;DHT22;15704;48.834;8.736;2023-06-19T06:53:04;23.90;92.10
28484;DHT22;15704;48.834;8.736;2023-06-19T06:55:31;23.90;92.30
28484;DHT22;15704;48.834;8.736;2023-06-19T06:57:57;23.90;92.40
28484;DHT22;15704;48.834;8.736;2023-06-19T07:00:24;23.90;92.60
28484;DHT22;15704;48.834;8.736;2023-06-19T07:02:51;24.00;92.80
28484;DHT22;15704;48.834;8.736;2023-06-19T07:05:18;24.00;92.70
28484;DHT22;15704;48.834;8.736;2023-06-19T07:07:45;24.00;92.80
28484;DHT22;15704;48.834;8.736;2023-06-19T07:10:12;24.00;93.20
28484;DHT22;15704;48.834;8.736;2023-06-19T07:12:46;23.90;92.70
28484;DHT22;15704;48.834;8.736;2023-06-19T07:15:13;23.90;92.60
28484;DHT22;15704;48.834;8.736;2023-06-19T07:17:40;24.00;92.70
28484;DHT22;15704;48.834;8.736;2023-06-19T07:20:07;24.10;92.80
28484;DHT22;15704;48.834;8.736;2023-06-19T07:22:34;24.10;92.40
28484;DHT22;15704;48.834;8.736;2023-06-19T07:25:01;24.00;91.90
28484;DHT22;15704;48.834;8.736;2023-06-19T07:27:28;23.90;92.10
28484;DHT22;15704;48.834;8.736;2023-06-19T07:29:55;23.80;92.40
28484;DHT22;15704;48.834;8.736;2023-06-19T07:32:22;23.80;92.60
28484;DHT22;15704;48.834;8.736;2023-06-19T07:34:49;23.80;92.60
28484;DHT22;15704;48.834;8.736;2023-06-19T07:37:16;23.90;92.40
28484;DHT22;15704;48.834;8.736;2023-06-19T07:39:50;24.00;92.60
28484;DHT22;15704;48.834;8.736;2023-06-19T07:42:18;24.10;92.40
28484;DHT22;15704;48.834;8.736;2023-06-19T07:44:46;24.10;92.50
28484;DHT22;15704;48.834;8.736;2023-06-19T07:47:14;24.00;92.70
28484;DHT22;15704;48.834;8.736;2023-06-19T07:49:41;24.00;92.80
28484;DHT22;15704;48.834;8.736;2023-06-19T07:52:08;24.00;92.60
28484;DHT22;15704;48.834;8.736;2023-06-19T07:54:49;24.00;92.80
28484;DHT22;15704;48.834;8.736;2023-06-19T07:57:16;23.90;92.80
28484;DHT22;15704;48.834;8.736;2023-06-19T07:59:43;23.90;92.80
28484;DHT22;15704;48.834;8.736;2023-06-19T08:02:11;24.10;92.50
28484;DHT22;15704;48.834;8.736;2023-06-19T08:04:38;24.10;93.00
28484;DHT22;15704;48.834;8.736;2023-06-19T08:07:05;24.10;92.40
28484;DHT22;15704;48.834;8.736;2023-06-19T08:09:32;23.90;92.10
28484;DHT22;15704;48.834;8.736;2023-06-19T08:12:00;23.80;92.50
28484;DHT22;15704;48.834;8.736;2023-06-19T08:14:27;23.90;92.30
28484;DHT22;15704;48.834;8.736;2023-06-19T08:16:54;24.00;92.50
28484;DHT22;15704;48.834;8.736;2023-06-19T08:19:21;24.10;92.30
28484;DHT22;15704;48.834;8.736;2023-06-19T08:21:48;24.10;92.20
28484;DHT22;15704;48.834;8.736;2023-06-19T08:24:15;24.10;92.30
28484;DHT22;15704;48.834;8.736;2023-06-19T08:26:41;24.10;92.80
28484;DHT22;15704;48.834;8.736;2023-06-19T08:29:08;24.10;92.60
28484;DHT22;15704;48.834;8.736;2023-06-19T08:31:35;24.10;92.80
28484;DHT22;15704;48.834;8.736;2023-06-19T08:34:02;24.00;92.50
28484;DHT22;15704;48.834;8.736;2023-06-19T08:36:33;23.90;92.70
28484;DHT22;15704;48.834;8.736;2023-06-19T08:39:00;24.10;92.80
28484;DHT22;15704;48.834;8.736;2023-06-19T08:41:27;24.10;92.60
28484;DHT22;15704;48.834;8.736;2023-06-19T08:43:54;24.30;92.40
28484;DHT22;15704;48.834;8.736;2023-06-19T08:46:21;24.30;92.10
28484;DHT22;15704;48.834;8.736;2023-06-19T08:48:48;24.40;92.00
28484;DHT22;15704;48.834;8.736;2023-06-19T08:51:15;24.40;91.80
28484;DHT22;15704;48.834;8.736;2023-06-19T08:53:53;24.50;91.50
28484;DHT22;15704;48.834;8.736;2023-06-19T08:56:20;24.50;91.20
28484;DHT22;15704;48.834;8.736;2023-06-19T08:58:47;24.50;91.30
28484;DHT22;15704;48.834;8.736;2023-06-19T09:01:17;24.60;91.20
28484;DHT22;15704;48.834;8.736;2023-06-19T09:03:46;24.60;90.90
28484;DHT22;15704;48.834;8.736;2023-06-19T09:06:16;24.60;91.40
28484;DHT22;15704;48.834;8.736;2023-06-19T09:08:43;24.60;91.30
28484;DHT22;15704;48.834;8.736;2023-06-19T09:11:11;24.60;91.30
28484;DHT22;15704;48.834;8.736;2023-06-19T09:13:38;24.60;91.70
28484;DHT22;15704;48.834;8.736;2023-06-19T09:16:06;24.60;91.90
28484;DHT22;15704;48.834;8.736;2023-06-19T09:18:47;24.70;92.00
28484;DHT22;15704;48.834;8.736;2023-06-19T09:21:19;24.60;92.10
28484;DHT22;15704;48.834;8.736;2023-06-19T09:23:46;24.50;92.30
28484;DHT22;15704;48.834;8.736;2023-06-19T09:26:16;24.50;92.40
28484;DHT22;15704;48.834;8.736;2023-06-19T09:28:44;24.50;92.40
28484;DHT22;15704;48.834;8.736;2023-06-19T09:31:11;24.60;92.60
28484;DHT22;15704;48.834;8.736;2023-06-19T09:33:39;24.60;92.80
28484;DHT22;15704;48.834;8.736;2023-06-19T09:36:06;24.60;92.20
28484;DHT22;15704;48.834;8.736;2023-06-19T09:38:36;24.50;92.30
28484;DHT22;15704;48.834;8.736;2023-06-19T09:41:05;24.60;92.10
28484;DHT22;15704;48.834;8.736;2023-06-19T09:43:46;24.60;91.90
28484;DHT22;15704;48.834;8.736;2023-06-19T09:46:14;24.70;92.00
28484;DHT22;15704;48.834;8.736;2023-06-19T09:48:45;24.70;92.10
28484;DHT22;15704;48.834;8.736;2023-06-19T09:51:19;24.70;92.40
28484;DHT22;15704;48.834;8.736;2023-06-19T09:53:50;24.70;92.10
28484;DHT22;15704;48.834;8.736;2023-06-19T09:56:18;24.70;92.30
28484;DHT22;15704;48.834;8.736;2023-06-19T09:58:50;24.70;92.90
28484;DHT22;15704;48.834;8.736;2023-06-19T10:01:18;24.70;93.10
28484;DHT22;15704;48.834;8.736;2023-06-19T10:03:45;24.70;92.60
28484;DHT22;15704;48.834;8.736;2023-06-19T10:06:16;24.70;92.40
28484;DHT22;15704;48.834;8.736;2023-06-19T10:08:44;24.70;92.30
28484;DHT22;15704;48.834;8.736;2023-06-19T10:11:12;24.70;92.30
28484;DHT22;15704;48.834;8.736;2023-06-19T10:13:41;24.70;92.30
28484;DHT22;15704;48.834;8.736;2023-06-19T10:16:18;24.70;92.30
28484;DHT22;15704;48.834;8.736;2023-06-19T10:18:47;24.70;92.00
28484;DHT22;15704;48.834;8.736;2023-06-19T10:21:21;24.80;92.10
28484;DHT22;15704;48.834;8.736;2023-06-19T10:23:54;24.80;92.20
28484;DHT22;15704;48.834;8.736;2023-06-19T10:26:33;24.90;92.40
28484;DHT22;15704;48.834;8.736;2023-06-19T10:29:01;24.80;92.10
28484;DHT22;15704;48.834;8.736;2023-06-19T10:31:28;24.90;92.00
28484;DHT22;15704;48.834;8.736;2023-06-19T10:33:55;24.90;92.20
28484;DHT22;15704;48.834;8.736;2023-06-19T10:36:23;24.90;92.40
28484;DHT22;15704;48.834;8.736;2023-06-19T10:38:52;25.00;92.50
28484;DHT22;15704;48.834;8.736;2023-06-19T10:41:22;25.10;92.50
28484;DHT22;15704;48.834;8.736;2023-06-19T10:44:01;25.10;92.30
28484;DHT22;15704;48.834;8.736;2023-06-19T10:46:32;25.10;92.50
28484;DHT22;15704;48.834;8.736;2023-06-19T10:49:00;25.10;92.40
28484;DHT22;15704;48.834;8.736;2023-06-19T10:51:28;25.10;92.70
28484;DHT22;15704;48.834;8.736;2023-06-19T10:53:56;25.10;92.40
28484;DHT22;15704;48.834;8.736;2023-06-19T10:56:23;25.10;92.50
28484;DHT22;15704;48.834;8.736;2023-06-19T10:59:02;25.10;92.70
28484;DHT22;15704;48.834;8.736;2023-06-19T11:01:34;25.10;92.50
28484;DHT22;15704;48.834;8.736;2023-06-19T11:04:03;25.20;92.40
28484;DHT22;15704;48.834;8.736;2023-06-19T11:06:31;25.20;91.90
28484;DHT22;15704;48.834;8.736;2023-06-19T11:08:58;25.30;92.20
28484;DHT22;15704;48.834;8.736;2023-06-19T11:11:43;25.30;92.20
28484;DHT22;15704;48.834;8.736;2023-06-19T11:14:11;25.30;92.50
28484;DHT22;15704;48.834;8.736;2023-06-19T11:16:40;25.40;92.50
28484;DHT22;15704;48.834;8.736;2023-06-19T11:19:18;25.40;92.50
28484;DHT22;15704;48.834;8.736;2023-06-19T11:21:48;25.40;92.50
28484;DHT22;15704;48.834;8.736;2023-06-19T11:24:15;25.40;92.50
28484;DHT22;15704;48.834;8.736;2023-06-19T11:26:44;25.50;92.10
28484;DHT22;15704;48.834;8.736;2023-06-19T11:29:25;25.50;92.10
28484;DHT22;15704;48.834;8.736;2023-06-19T11:32:05;25.40;92.50
28484;DHT22;15704;48.834;8.736;2023-06-19T11:34:33;25.50;92.50
28484;DHT22;15704;48.834;8.736;2023-06-19T11:37:00;25.50;92.30
28484;DHT22;15704;48.834;8.736;2023-06-19T11:39:27;25.50;91.90
28484;DHT22;15704;48.834;8.736;2023-06-19T11:41:54;25.50;91.80
28484;DHT22;15704;48.834;8.736;2023-06-19T11:44:21;25.50;91.60
28484;DHT22;15704;48.834;8.736;2023-06-19T11:46:48;25.50;91.70
28484;DHT22;15704;48.834;8.736;2023-06-19T11:49:16;25.50;91.70
28484;DHT22;15704;48.834;8.736;2023-06-19T11:51:45;25.50;92.00
28484;DHT22;15704;48.834;8.736;2023-06-19T11:54:13;25.50;92.10
28484;DHT22;15704;48.834;8.736;2023-06-19T11:56:41;25.50;92.00
28484;DHT22;15704;48.834;8.736;2023-06-19T11:59:08;25.60;91.90
28484;DHT22;15704;48.834;8.736;2023-06-19T12:01:36;25.60;91.90
28484;DHT22;15704;48.834;8.736;2023-06-19T12:04:03;25.60;91.70
28484;DHT22;15704;48.834;8.736;2023-06-19T12:06:31;25.70;91.60
28484;DHT22;15704;48.834;8.736;2023-06-19T12:08:58;25.70;91.60
28484;DHT22;15704;48.834;8.736;2023-06-19T12:11:25;25.80;91.70
28484;DHT22;15704;48.834;8.736;2023-06-19T12:13:52;25.80;91.70
28484;DHT22;15704;48.834;8.736;2023-06-19T12:16:24;25.80;91.40
28484;DHT22;15704;48.834;8.736;2023-06-19T12:18:53;25.80;91.50
28484;DHT22;15704;48.834;8.736;2023-06-19T12:21:19;25.90;91.50
28484;DHT22;15704;48.834;8.736;2023-06-19T12:24:03;25.90;91.60
28484;DHT22;15704;48.834;8.736;2023-06-19T12:26:30;26.00;91.30
28484;DHT22;15704;48.834;8.736;2023-06-19T12:28:57;26.00;91.40
28484;DHT22;15704;48.834;8.736;2023-06-19T12:31:24;26.00;91.40
28484;DHT22;15704;48.834;8.736;2023-06-19T12:33:51;26.00;91.40
28484;DHT22;15704;48.834;8.736;2023-06-19T12:36:18;26.00;91.50
28484;DHT22;15704;48.834;8.736;2023-06-19T12:38:45;25.90;91.30
28484;DHT22;15704;48.834;8.736;2023-06-19T12:41:14;26.00;91.50
28484;DHT22;15704;48.834;8.736;2023-06-19T12:43:41;26.00;91.30
28484;DHT22;15704;48.834;8.736;2023-06-19T12:46:08;26.00;91.40
28484;DHT22;15704;48.834;8.736;2023-06-19T12:48:35;26.00;91.50
28484;DHT22;15704;48.834;8.736;2023-06-19T12:51:01;26.10;91.50
28484;DHT22;15704;48.834;8.736;2023-06-19T12:53:28;25.90;91.40
28484;DHT22;15704;48.834;8.736;2023-06-19T12:55:59;25.80;91.60
28484;DHT22;15704;48.834;8.736;2023-06-19T12:58:33;25.90;91.80
28484;DHT22;15704;48.834;8.736;2023-06-19T13:01:00;26.00;91.70
28484;DHT22;15704;48.834;8.736;2023-06-19T13:03:27;26.10;91.10
28484;DHT22;15704;48.834;8.736;2023-06-19T13:05:54;26.10;91.00
28484;DHT22;15704;48.834;8.736;2023-06-19T13:08:21;26.10;90.90
28484;DHT22;15704;48.834;8.736;2023-06-19T13:10:47;26.20;90.90
28484;DHT22;15704;48.834;8.736;2023-06-19T13:13:14;26.20;91.00
28484;DHT22;15704;48.834;8.736;2023-06-19T13:15:41;26.30;90.90
28484;DHT22;15704;48.834;8.736;2023-06-19T13:18:08;26.30;90.90
28484;DHT22;15704;48.834;8.736;2023-06-19T13:20:34;26.30;91.20
28484;DHT22;15704;48.834;8.736;2023-06-19T13:23:01;26.30;91.30
28484;DHT22;15704;48.834;8.736;2023-06-19T13:25:28;26.30;91.40
28484;DHT22;15704;48.834;8.736;2023-06-19T13:27:55;26.40;91.50
28484;DHT22;15704;48.834;8.736;2023-06-19T13:30:22;26.30;91.50
28484;DHT22;15704;48.834;8.736;2023-06-19T13:32:49;26.30;91.60
28484;DHT22;15704;48.834;8.736;2023-06-19T13:35:16;26.30;91.60
28484;DHT22;15704;48.834;8.736;2023-06-19T13:37:42;26.30;91.30
28484;DHT22;15704;48.834;8.736;2023-06-19T13:40:09;26.30;91.60
28484;DHT22;15704;48.834;8.736;2023-06-19T13:42:36;26.20;91.40
28484;DHT22;15704;48.834;8.736;2023-06-19T13:45:05;26.30;91.60
28484;DHT22;15704;48.834;8.736;2023-06-19T13:47:32;26.30;91.50
28484;DHT22;15704;48.834;8.736;2023-06-19T13:49:59;26.40;91.60
28484;DHT22;15704;48.834;8.736;2023-06-19T13:52:26;26.40;91.60
28484;DHT22;15704;48.834;8.736;2023-06-19T13:54:54;26.40;91.40
28484;DHT22;15704;48.834;8.736;2023-06-19T13:57:22;26.40;91.40
28484;DHT22;15704;48.834;8.736;2023-06-19T13:59:48;26.30;91.50
28484;DHT22;15704;48.834;8.736;2023-06-19T14:02:15;26.30;91.60
28484;DHT22;15704;48.834;8.736;2023-06-19T14:04:42;26.30;91.70
28484;DHT22;15704;48.834;8.736;2023-06-19T14:07:09;26.30;91.70
28484;DHT22;15704;48.834;8.736;2023-06-19T14:09:36;26.30;91.70
28484;DHT22;15704;48.834;8.736;2023-06-19T14:12:03;26.30;91.90
28484;DHT22;15704;48.834;8.736;2023-06-19T14:14:30;26.30;92.00
28484;DHT22;15704;48.834;8.736;2023-06-19T14:16:57;26.30;92.10
28484;DHT22;15704;48.834;8.736;2023-06-19T14:19:25;26.30;91.90
28484;DHT22;15704;48.834;8.736;2023-06-19T14:21:51;26.40;91.80
28484;DHT22;15704;48.834;8.736;2023-06-19T14:24:18;26.40;91.80
28484;DHT22;15704;48.834;8.736;2023-06-19T14:26:45;26.50;92.20
28484;DHT22;15704;48.834;8.736;2023-06-19T14:29:12;26.50;91.70
28484;DHT22;15704;48.834;8.736;2023-06-19T14:31:41;26.50;91.60
28484;DHT22;15704;48.834;8.736;2023-06-19T14:34:08;26.50;91.60
28484;DHT22;15704;48.834;8.736;2023-06-19T14:36:37;26.50;91.50
28484;DHT22;15704;48.834;8.736;2023-06-19T14:39:04;26.50;91.70
28484;DHT22;15704;48.834;8.736;2023-06-19T14:41:31;26.40;92.00
28484;DHT22;15704;48.834;8.736;2023-06-19T14:43:58;26.40;91.90
28484;DHT22;15704;48.834;8.736;2023-06-19T14:46:25;26.40;91.90
28484;DHT22;15704;48.834;8.736;2023-06-19T14:49:10;26.30;91.90
28484;DHT22;15704;48.834;8.736;2023-06-19T14:51:37;26.30;92.10
28484;DHT22;15704;48.834;8.736;2023-06-19T14:54:04;26.30;92.10
28484;DHT22;15704;48.834;8.736;2023-06-19T14:56:31;26.20;92.30
28484;DHT22;15704;48.834;8.736;2023-06-19T14:58:57;26.20;92.60
28484;DHT22;15704;48.834;8.736;2023-06-19T15:01:25;26.30;92.30
28484;DHT22;15704;48.834;8.736;2023-06-19T15:03:52;26.30;92.40
28484;DHT22;15704;48.834;8.736;2023-06-19T15:06:19;26.30;92.20
28484;DHT22;15704;48.834;8.736;2023-06-19T15:08:46;26.30;92.30
28484;DHT22;15704;48.834;8.736;2023-06-19T15:11:12;26.40;92.20
28484;DHT22;15704;48.834;8.736;2023-06-19T15:13:39;26.40;92.10
28484;DHT22;15704;48.834;8.736;2023-06-19T15:16:06;26.40;92.20
28484;DHT22;15704;48.834;8.736;2023-06-19T15:18:34;26.40;92.20
28484;DHT22;15704;48.834;8.736;2023-06-19T15:21:01;26.40;92.20
28484;DHT22;15704;48.834;8.736;2023-06-19T15:23:28;26.40;92.40
28484;DHT22;15704;48.834;8.736;2023-06-19T15:25:55;26.40;91.80
28484;DHT22;15704;48.834;8.736;2023-06-19T15:28:22;26.50;91.80
28484;DHT22;15704;48.834;8.736;2023-06-19T15:30:48;26.50;91.80
28484;DHT22;15704;48.834;8.736;2023-06-19T15:33:15;26.50;91.70
28484;DHT22;15704;48.834;8.736;2023-06-19T15:35:44;26.60;91.90